createdAt,value
2019-03-05T00:01:33.890Z,98301.69
2019-03-05T00:04:02.023Z,98313.75
2019-03-05T00:06:29.833Z,98318.46
2019-03-05T00:08:57.637Z,98310.28
2019-03-05T00:11:25.385Z,98317.75
2019-03-05T00:13:53.214Z,98313.43
2019-03-05T00:16:21.033Z,98314.34
2019-03-05T00:18:48.858Z,98318.20
2019-03-05T00:21:17.024Z,98323.22
2019-03-05T00:23:51.109Z,98335.55
2019-03-05T00:26:30.224Z,98337.64
2019-03-05T00:29:28.596Z,98347.27
2019-03-05T00:31:57.683Z,98344.89
2019-03-05T00:35:08.827Z,98355.00
2019-03-05T00:38:23.306Z,98350.88
2019-03-05T00:41:07.848Z,98352.73
2019-03-05T00:44:16.966Z,98346.26
2019-03-05T00:47:48.861Z,98342.23
2019-03-05T00:51:24.632Z,98336.38
2019-03-05T00:54:50.166Z,98329.45
2019-03-05T00:57:50.910Z,98343.34
2019-03-05T01:00:57.760Z,98342.34
2019-03-05T01:04:13.040Z,98351.50
2019-03-05T01:06:40.811Z,98363.27
2019-03-05T01:09:16.532Z,98348.67
2019-03-05T01:11:44.470Z,98341.78
2019-03-05T01:14:32.049Z,98337.38
2019-03-05T01:16:59.846Z,98343.09
2019-03-05T01:19:27.625Z,98334.78
2019-03-05T01:21:55.466Z,98353.81
2019-03-05T01:24:23.507Z,98362.02
2019-03-05T01:26:51.276Z,98365.77
2019-03-05T01:29:19.132Z,98370.04
2019-03-05T01:32:06.503Z,98377.73
2019-03-05T01:34:53.887Z,98392.58
2019-03-05T01:37:21.802Z,98355.85
2019-03-05T01:39:56.058Z,98365.83
2019-03-05T01:42:23.845Z,98368.38
2019-03-05T01:44:51.686Z,98380.35
2019-03-05T01:47:19.501Z,98380.53
2019-03-05T01:49:47.274Z,98392.29
2019-03-05T01:52:15.058Z,98384.29
2019-03-05T01:54:42.806Z,98398.18
2019-03-05T01:57:10.747Z,98410.73
2019-03-05T01:59:38.529Z,98413.97
2019-03-05T02:02:06.333Z,98416.23
2019-03-05T02:04:36.129Z,98416.05
2019-03-05T02:07:04.101Z,98421.44
2019-03-05T02:09:31.904Z,98418.01
2019-03-05T02:11:59.810Z,98416.88
2019-03-05T02:14:27.643Z,98419.31
2019-03-05T02:16:55.359Z,98418.19
2019-03-05T02:19:44.875Z,98422.61
2019-03-05T02:22:35.206Z,98423.43
2019-03-05T02:25:36.240Z,98426.50
2019-03-05T02:28:45.416Z,98426.02
2019-03-05T02:32:14.053Z,98430.42
2019-03-05T02:35:48.094Z,98424.56
2019-03-05T02:39:14.200Z,98430.41
2019-03-05T02:42:17.550Z,98428.89
2019-03-05T02:45:31.519Z,98430.52
2019-03-05T02:48:56.804Z,98427.06
2019-03-05T02:52:27.294Z,98422.98
2019-03-05T02:57:32.394Z,98435.83
2019-03-05T03:00:00.459Z,98439.77
2019-03-05T03:03:01.455Z,98435.84
2019-03-05T03:05:35.896Z,98430.44
2019-03-05T03:08:03.676Z,98426.98
2019-03-05T03:10:31.414Z,98429.44
2019-03-05T03:13:29.499Z,98426.17
2019-03-05T03:15:57.292Z,98434.51
2019-03-05T03:18:25.077Z,98432.87
2019-03-05T03:20:52.868Z,98433.80
2019-03-05T03:23:25.948Z,98433.77
2019-03-05T03:25:53.779Z,98428.98
2019-03-05T03:28:21.550Z,98428.44
2019-03-05T03:30:49.409Z,98429.23
2019-03-05T03:33:17.393Z,98426.90
2019-03-05T03:35:45.164Z,98423.59
2019-03-05T03:38:12.962Z,98426.02
2019-03-05T03:40:40.828Z,98428.45
2019-03-05T03:43:08.554Z,98428.75
2019-03-05T03:45:36.273Z,98423.34
2019-03-05T03:48:04.106Z,98428.69
2019-03-05T03:50:31.902Z,98420.00
2019-03-05T03:52:59.758Z,98416.22
2019-03-05T03:55:27.515Z,98416.86
2019-03-05T03:57:55.424Z,98409.31
2019-03-05T04:00:24.224Z,98416.66
2019-03-05T04:02:53.103Z,98411.07
2019-03-05T04:05:20.829Z,98417.93
2019-03-05T04:07:48.671Z,98409.06
2019-03-05T04:10:16.608Z,98417.08
2019-03-05T04:12:44.381Z,98418.68
2019-03-05T04:15:15.027Z,98418.47
2019-03-05T04:17:42.804Z,98427.94
2019-03-05T04:20:18.570Z,98423.36
2019-03-05T04:22:51.714Z,98422.84
2019-03-05T04:25:19.505Z,98422.19
2019-03-05T04:27:47.320Z,98426.40
2019-03-05T04:30:15.088Z,98423.63
2019-03-05T04:32:43.030Z,98423.63
2019-03-05T04:35:11.240Z,98425.42
2019-03-05T04:37:38.992Z,98425.55
2019-03-05T04:40:08.339Z,98420.63
2019-03-05T04:42:55.571Z,98430.09
2019-03-05T04:45:40.218Z,98421.93
2019-03-05T04:48:08.036Z,98419.13
2019-03-05T04:50:40.717Z,98416.18
2019-03-05T04:53:13.808Z,98418.16
2019-03-05T04:58:19.910Z,98432.08
2019-03-05T05:00:47.752Z,98422.94
2019-03-05T05:03:15.561Z,98423.75
2019-03-05T05:05:43.486Z,98434.08
2019-03-05T05:08:11.255Z,98430.31
2019-03-05T05:10:39.063Z,98443.71
2019-03-05T05:13:07.141Z,98428.97
2019-03-05T05:15:34.935Z,98418.84
2019-03-05T05:18:03.253Z,98430.79
2019-03-05T05:20:30.987Z,98427.53
2019-03-05T05:22:58.882Z,98420.52
2019-03-05T05:25:26.639Z,98427.38
2019-03-05T05:27:54.477Z,98422.67
2019-03-05T05:30:32.042Z,98420.40
2019-03-05T05:33:00.038Z,98430.70
2019-03-05T05:35:27.825Z,98433.88
2019-03-05T05:37:55.648Z,98435.38
2019-03-05T05:40:37.281Z,98420.34
2019-03-05T05:43:08.347Z,98445.39
2019-03-05T05:45:45.825Z,98445.70
2019-03-05T05:48:13.708Z,98442.62
2019-03-05T05:50:41.534Z,98447.73
2019-03-05T05:53:09.447Z,98448.52
2019-03-05T05:55:37.285Z,98431.62
2019-03-05T05:58:05.051Z,98439.09
2019-03-05T06:00:34.154Z,98450.69
2019-03-05T06:03:02.050Z,98450.49
2019-03-05T06:05:29.904Z,98452.91
2019-03-05T06:07:57.670Z,98453.53
2019-03-05T06:10:25.470Z,98453.05
2019-03-05T06:12:53.401Z,98455.14
2019-03-05T06:15:21.237Z,98461.84
2019-03-05T06:17:49.016Z,98458.39
2019-03-05T06:20:16.851Z,98464.42
2019-03-05T06:22:44.652Z,98460.14
2019-03-05T06:25:12.820Z,98485.64
2019-03-05T06:27:40.574Z,98466.98
2019-03-05T06:30:10.915Z,98473.83
2019-03-05T06:32:38.673Z,98479.05
2019-03-05T06:35:06.661Z,98475.30
2019-03-05T06:37:34.429Z,98471.84
2019-03-05T06:40:02.254Z,98477.17
2019-03-05T06:42:30.045Z,98484.05
2019-03-05T06:44:57.839Z,98481.95
2019-03-05T06:47:25.610Z,98474.11
2019-03-05T06:49:53.469Z,98473.20
2019-03-05T06:52:21.259Z,98480.56
2019-03-05T06:54:49.064Z,98471.26
2019-03-05T06:57:16.834Z,98473.95
2019-03-05T06:59:44.616Z,98473.16
2019-03-05T07:02:12.493Z,98482.14
2019-03-05T07:04:42.442Z,98478.07
2019-03-05T07:07:10.196Z,98475.45
2019-03-05T07:10:39.543Z,98482.33
2019-03-05T07:13:17.672Z,98493.94
2019-03-05T07:16:42.234Z,98487.30
2019-03-05T07:19:27.047Z,98495.23
2019-03-05T07:22:33.501Z,98495.69
2019-03-05T07:25:01.281Z,98494.18
2019-03-05T07:27:35.078Z,98498.77
2019-03-05T07:30:23.529Z,98497.32
2019-03-05T07:32:52.480Z,98499.63
2019-03-05T07:35:22.706Z,98494.08
2019-03-05T07:37:50.512Z,98494.50
2019-03-05T07:40:18.285Z,98499.30
2019-03-05T07:42:46.098Z,98504.42
2019-03-05T07:45:14.861Z,98500.46
2019-03-05T07:47:42.754Z,98502.55
2019-03-05T07:50:10.575Z,98533.76
2019-03-05T07:52:38.346Z,98503.58
2019-03-05T07:55:15.120Z,98489.89
2019-03-05T07:57:42.923Z,98495.00
2019-03-05T08:00:17.310Z,98487.97
2019-03-05T08:02:45.058Z,98490.33
2019-03-05T08:05:14.032Z,98500.49
2019-03-05T08:07:42.359Z,98494.25
2019-03-05T08:10:31.031Z,98497.41
2019-03-05T08:13:37.022Z,98500.95
2019-03-05T08:16:13.881Z,98497.20
2019-03-05T08:18:41.642Z,98496.95
2019-03-05T08:21:09.435Z,98493.06
2019-03-05T08:23:37.316Z,98510.66
2019-03-05T08:26:05.199Z,98506.55
2019-03-05T08:28:33.025Z,98503.06
2019-03-05T08:31:00.835Z,98504.26
2019-03-05T08:33:28.689Z,98506.06
2019-03-05T08:35:56.604Z,98515.37
2019-03-05T08:38:24.448Z,98512.77
2019-03-05T08:40:52.313Z,98517.05
2019-03-05T08:43:20.278Z,98522.19
2019-03-05T08:45:48.098Z,98530.59
2019-03-05T08:48:15.907Z,98527.98
2019-03-05T08:50:44.018Z,98528.57
2019-03-05T08:53:12.197Z,98537.29
2019-03-05T08:55:40.914Z,98532.81
2019-03-05T08:58:08.782Z,98542.86
2019-03-05T09:00:36.633Z,98518.86
2019-03-05T09:03:04.588Z,98537.43
2019-03-05T09:05:32.435Z,98547.16
2019-03-05T09:08:00.265Z,98541.58
2019-03-05T09:10:28.096Z,98538.19
2019-03-05T09:12:55.938Z,98534.23
2019-03-05T09:15:25.524Z,98534.88
2019-03-05T09:17:53.309Z,98533.92
2019-03-05T09:20:21.222Z,98530.57
2019-03-05T09:22:49.061Z,98532.98
2019-03-05T09:25:16.957Z,98532.42
2019-03-05T09:27:44.745Z,98523.78
2019-03-05T09:30:16.362Z,98518.58
2019-03-05T09:32:44.182Z,98520.30
2019-03-05T09:35:12.326Z,98527.63
2019-03-05T09:37:40.160Z,98517.48
2019-03-05T09:40:12.964Z,98525.81
2019-03-05T09:42:40.784Z,98525.84
2019-03-05T09:45:11.581Z,98515.88
2019-03-05T09:47:39.363Z,98525.95
2019-03-05T09:50:10.602Z,98517.48
2019-03-05T09:52:38.603Z,98513.79
2019-03-05T09:55:08.192Z,98512.41
2019-03-05T09:57:37.890Z,98508.16
2019-03-05T10:00:10.124Z,98504.23
2019-03-05T10:02:37.974Z,98509.47
2019-03-05T10:05:06.981Z,98509.67
2019-03-05T10:07:34.815Z,98507.02
2019-03-05T10:10:04.180Z,98493.31
2019-03-05T10:12:32.211Z,98485.34
2019-03-05T10:14:59.958Z,98491.19
2019-03-05T10:17:37.650Z,98481.13
2019-03-05T10:19:57.458Z,98500.88
2019-03-05T10:22:25.320Z,98487.44
2019-03-05T10:24:53.220Z,98500.13
2019-03-05T10:27:21.069Z,98502.95
2019-03-05T10:29:48.893Z,98503.31
2019-03-05T10:32:16.694Z,98502.90
2019-03-05T10:34:44.453Z,98504.84
2019-03-05T10:37:18.797Z,98509.44
2019-03-05T10:39:43.170Z,98515.62
2019-03-05T10:42:10.935Z,98522.09
2019-03-05T10:44:39.131Z,98520.88
2019-03-05T10:47:06.972Z,98531.80
2019-03-05T10:49:34.778Z,98531.44
2019-03-05T10:52:02.640Z,98531.09
2019-03-05T10:54:30.435Z,98535.11
2019-03-05T10:56:58.269Z,98539.39
2019-03-05T10:59:26.106Z,98538.50
2019-03-05T11:01:53.908Z,98539.73
2019-03-05T11:04:21.727Z,98543.39
2019-03-05T11:06:49.698Z,98539.92
2019-03-05T11:09:19.355Z,98546.00
2019-03-05T11:11:47.223Z,98544.77
2019-03-05T11:14:15.108Z,98540.11
2019-03-05T11:16:42.914Z,98546.97
2019-03-05T11:19:10.740Z,98541.19
2019-03-05T11:21:38.803Z,98543.77
2019-03-05T11:24:06.742Z,98542.59
2019-03-05T11:26:34.536Z,98544.05
2019-03-05T11:29:02.375Z,98544.70
2019-03-05T11:31:30.228Z,98541.47
2019-03-05T11:33:58.145Z,98545.59
2019-03-05T11:36:36.797Z,98548.61
2019-03-05T11:39:05.708Z,98546.95
2019-03-05T11:41:33.846Z,98549.35
2019-03-05T11:44:01.808Z,98560.02
2019-03-05T11:46:33.345Z,98558.63
2019-03-05T11:49:01.127Z,98546.06
2019-03-05T11:51:28.924Z,98551.77
2019-03-05T11:53:56.839Z,98564.02
2019-03-05T11:56:24.692Z,98568.51
2019-03-05T11:58:52.508Z,98573.56
2019-03-05T12:01:46.145Z,98569.41
2019-03-05T12:04:14.264Z,98571.94
2019-03-05T12:06:42.088Z,98577.03
2019-03-05T12:09:09.879Z,98572.80
2019-03-05T12:11:37.659Z,98585.19
2019-03-05T12:14:05.458Z,98582.48
2019-03-05T12:16:33.272Z,98588.28
2019-03-05T12:19:01.120Z,98583.73
2019-03-05T12:21:28.925Z,98586.79
2019-03-05T12:23:56.710Z,98588.23
2019-03-05T12:26:24.582Z,98579.59
2019-03-05T12:28:52.388Z,98588.80
2019-03-05T12:31:20.185Z,98593.11
2019-03-05T12:33:47.918Z,98594.09
2019-03-05T12:36:15.799Z,98598.09
2019-03-05T12:38:46.078Z,98597.39
2019-03-05T12:41:13.305Z,98599.58
2019-03-05T12:43:41.173Z,98595.73
2019-03-05T12:46:08.983Z,98584.19
2019-03-05T12:48:40.325Z,98582.92
2019-03-05T12:51:08.519Z,98584.98
2019-03-05T12:53:36.321Z,98585.78
2019-03-05T12:56:04.267Z,98591.69
2019-03-05T12:58:32.105Z,98590.52
2019-03-05T13:00:59.917Z,98593.50
2019-03-05T13:03:27.681Z,98591.95
2019-03-05T13:05:55.545Z,98602.61
2019-03-05T13:08:23.357Z,98600.03
2019-03-05T13:10:51.175Z,98602.11
2019-03-05T13:13:19.180Z,98601.25
2019-03-05T13:15:49.037Z,98603.20
2019-03-05T13:18:16.905Z,98596.34
2019-03-05T13:20:44.676Z,98598.59
2019-03-05T13:23:12.616Z,98595.30
2019-03-05T13:25:40.485Z,98596.91
2019-03-05T13:28:08.351Z,98597.75
2019-03-05T13:30:36.268Z,98601.52
2019-03-05T13:33:04.193Z,98600.84
2019-03-05T13:35:32.336Z,98604.72
2019-03-05T13:38:03.213Z,98612.11
2019-03-05T13:40:34.016Z,98617.41
2019-03-05T13:43:02.198Z,98615.52
2019-03-05T13:45:30.007Z,98622.63
2019-03-05T13:48:06.399Z,98629.73
2019-03-05T13:51:30.022Z,98629.00
2019-03-05T13:55:02.728Z,98641.50
2019-03-05T13:58:17.203Z,98641.08
2019-03-05T14:00:45.143Z,98644.39
2019-03-05T14:03:25.990Z,98642.59
2019-03-05T14:07:10.196Z,98649.74
2019-03-05T14:09:36.501Z,98649.33
2019-03-05T14:12:04.496Z,98646.04
2019-03-05T14:14:32.700Z,98647.98
2019-03-05T14:17:20.262Z,98648.10
2019-03-05T14:19:48.073Z,98648.55
2019-03-05T14:22:15.903Z,98648.18
2019-03-05T14:24:43.780Z,98652.73
2019-03-05T14:29:49.932Z,98655.39
2019-03-05T14:32:17.775Z,98651.42
2019-03-05T14:35:00.711Z,98663.73
2019-03-05T14:37:30.420Z,98669.75
2019-03-05T14:40:18.707Z,98669.95
2019-03-05T14:42:28.551Z,98671.12
2019-03-05T14:44:56.516Z,98677.05
2019-03-05T14:47:24.456Z,98677.10
2019-03-05T14:49:52.219Z,98678.41
2019-03-05T14:52:20.054Z,98674.26
2019-03-05T14:54:47.920Z,98674.47
2019-03-05T14:57:15.713Z,98671.11
2019-03-05T14:59:43.645Z,98670.85
2019-03-05T15:02:11.472Z,98669.27
2019-03-05T15:04:39.305Z,98670.62
2019-03-05T15:07:07.286Z,98565.81
2019-03-05T15:09:35.101Z,98660.77
2019-03-05T15:12:02.953Z,98666.37
2019-03-05T15:14:30.943Z,98670.57
2019-03-05T15:16:58.774Z,98667.16
2019-03-05T15:19:26.723Z,98670.00
2019-03-05T15:21:56.425Z,98660.86
2019-03-05T15:24:24.198Z,98667.73
2019-03-05T15:26:52.109Z,98668.20
2019-03-05T15:29:20.832Z,98666.82
2019-03-05T15:31:49.075Z,98668.67
2019-03-05T15:34:16.921Z,98669.80
2019-03-05T15:36:44.699Z,98671.84
2019-03-05T15:39:12.613Z,98677.94
2019-03-05T15:41:45.526Z,98681.14
2019-03-05T15:44:10.078Z,98673.41
2019-03-05T15:46:37.959Z,98674.10
2019-03-05T15:49:05.850Z,98672.63
2019-03-05T15:51:35.923Z,98674.78
2019-03-05T15:54:20.583Z,98673.47
2019-03-05T15:56:48.535Z,98677.29
2019-03-05T15:59:18.632Z,98681.72
2019-03-05T16:01:46.526Z,98676.02
2019-03-05T16:04:14.436Z,98678.51
2019-03-05T16:06:42.294Z,98678.17
2019-03-05T16:09:16.727Z,98681.98
2019-03-05T16:11:44.529Z,98685.12
2019-03-05T16:14:12.613Z,98692.10
2019-03-05T16:16:40.420Z,98687.83
2019-03-05T16:19:08.176Z,98676.68
2019-03-05T16:21:37.106Z,98685.26
2019-03-05T16:24:05.796Z,98686.55
2019-03-05T16:26:33.588Z,98695.50
2019-03-05T16:29:01.408Z,98708.70
2019-03-05T16:31:37.290Z,98708.42
2019-03-05T16:34:14.381Z,98715.05
2019-03-05T16:36:55.204Z,98725.30
2019-03-05T16:39:41.485Z,98731.42
2019-03-05T16:42:32.229Z,98743.76
2019-03-05T16:45:36.490Z,98743.97
2019-03-05T16:48:26.583Z,98745.98
2019-03-05T16:50:59.454Z,98751.30
2019-03-05T16:53:37.688Z,98753.30
2019-03-05T16:56:27.880Z,98750.93
2019-03-05T16:59:15.315Z,98752.78
2019-03-05T17:02:02.709Z,98759.04
2019-03-05T17:05:04.982Z,98773.73
2019-03-05T17:07:43.418Z,98780.16
2019-03-05T17:10:43.099Z,98780.66
2019-03-05T17:13:11.567Z,98780.54
2019-03-05T17:15:39.524Z,98782.51
2019-03-05T17:18:07.290Z,98793.79
2019-03-05T17:20:35.409Z,98801.66
2019-03-05T17:23:04.560Z,98796.11
2019-03-05T17:25:32.341Z,98797.58
2019-03-05T17:28:00.176Z,98808.86
2019-03-05T17:30:27.989Z,98810.19
2019-03-05T17:32:55.823Z,98801.84
2019-03-05T17:35:23.660Z,98812.64
2019-03-05T17:37:51.392Z,98819.48
2019-03-05T17:40:19.181Z,98826.69
2019-03-05T17:42:46.959Z,98828.16
2019-03-05T17:45:18.217Z,98830.30
2019-03-05T17:47:46.055Z,98833.22
2019-03-05T17:50:14.007Z,98837.14
2019-03-05T17:52:41.794Z,98853.64
2019-03-05T17:55:23.843Z,98861.80
2019-03-05T17:57:45.023Z,98869.34
2019-03-05T18:00:21.200Z,98869.33
2019-03-05T18:02:59.172Z,98869.99
2019-03-05T18:05:27.487Z,98872.91
2019-03-05T18:07:55.416Z,98877.96
2019-03-05T18:10:23.386Z,98881.05
2019-03-05T18:12:51.477Z,98885.77
2019-03-05T18:15:19.341Z,98893.61
2019-03-05T18:17:47.126Z,98894.27
2019-03-05T18:20:15.617Z,98898.50
2019-03-05T18:22:44.258Z,98901.57
2019-03-05T18:25:12.377Z,98913.28
2019-03-05T18:27:40.201Z,98916.22
2019-03-05T18:30:12.666Z,98924.20
2019-03-05T18:32:45.519Z,98929.88
2019-03-05T18:35:13.745Z,98940.98
2019-03-05T18:37:41.618Z,98937.84
2019-03-05T18:40:12.614Z,98937.67
2019-03-05T18:42:40.546Z,98946.92
2019-03-05T18:45:16.294Z,98948.02
2019-03-05T18:47:44.189Z,98947.33
2019-03-05T18:50:18.716Z,98953.98
2019-03-05T18:52:49.075Z,98960.80
2019-03-05T18:55:17.632Z,98968.80
2019-03-05T18:57:48.865Z,98971.12
2019-03-05T19:00:20.515Z,98966.22
2019-03-05T19:02:54.026Z,98970.64
2019-03-05T19:05:22.283Z,98979.67
2019-03-05T19:07:54.158Z,98982.61
2019-03-05T19:10:22.991Z,98988.77
2019-03-05T19:12:54.684Z,98992.32
2019-03-05T19:15:25.310Z,98998.03
2019-03-05T19:17:55.146Z,98998.95
2019-03-05T19:20:23.388Z,98996.77
2019-03-05T19:22:55.499Z,98993.88
2019-03-05T19:25:25.854Z,98998.17
2019-03-05T19:27:53.866Z,98996.20
2019-03-05T19:30:28.680Z,99002.06
2019-03-05T19:32:56.533Z,99002.84
2019-03-05T19:35:43.524Z,99008.53
2019-03-05T19:38:13.516Z,99012.41
2019-03-05T19:40:41.357Z,99023.82
2019-03-05T19:43:09.325Z,99024.58
2019-03-05T19:45:37.148Z,99026.21
2019-03-05T19:48:05.057Z,99029.84
2019-03-05T19:50:32.917Z,99035.79
2019-03-05T19:53:00.970Z,99043.66
2019-03-05T19:55:28.831Z,99041.06
2019-03-05T19:58:09.807Z,99046.19
2019-03-05T20:00:53.250Z,99044.79
2019-03-05T20:03:21.292Z,99045.89
2019-03-05T20:05:49.151Z,99052.69
2019-03-05T20:08:17.009Z,99051.67
2019-03-05T20:10:44.892Z,99060.44
2019-03-05T20:13:13.256Z,99066.44
2019-03-05T20:15:41.080Z,99065.78
2019-03-05T20:18:08.887Z,99066.72
2019-03-05T20:20:36.752Z,99073.53
2019-03-05T20:23:05.172Z,99084.19
2019-03-05T20:25:32.931Z,99080.61
2019-03-05T20:28:00.900Z,99085.86
2019-03-05T20:30:28.775Z,99089.27
2019-03-05T20:32:56.728Z,99089.53
2019-03-05T20:35:24.674Z,99091.39
2019-03-05T20:37:52.572Z,99097.17
2019-03-05T20:40:20.749Z,99095.16
2019-03-05T20:42:48.668Z,99101.75
2019-03-05T20:45:27.268Z,99102.00
2019-03-05T20:47:55.094Z,99101.26
2019-03-05T20:50:22.921Z,99097.23
2019-03-05T20:52:50.828Z,99102.36
2019-03-05T20:55:18.732Z,99111.75
2019-03-05T20:57:49.196Z,99103.98
2019-03-05T21:00:29.407Z,99107.80
2019-03-05T21:03:00.016Z,99100.30
2019-03-05T21:05:38.458Z,99108.89
2019-03-05T21:08:06.406Z,99107.98
2019-03-05T21:10:34.228Z,99109.87
2019-03-05T21:13:02.859Z,99107.27
2019-03-05T21:15:31.611Z,99109.25
2019-03-05T21:17:59.718Z,99115.10
2019-03-05T21:20:27.541Z,99114.91
2019-03-05T21:22:55.454Z,99119.30
2019-03-05T21:25:23.266Z,99118.76
2019-03-05T21:27:51.185Z,99124.37
2019-03-05T21:30:19.199Z,99122.80
2019-03-05T21:32:47.114Z,99118.67
2019-03-05T21:35:15.105Z,99123.00
2019-03-05T21:37:46.069Z,99123.92
2019-03-05T21:40:19.413Z,99123.75
2019-03-05T21:42:47.388Z,99118.34
2019-03-05T21:45:19.965Z,99117.98
2019-03-05T21:47:47.771Z,99122.03
2019-03-05T21:50:16.108Z,99123.42
2019-03-05T21:52:43.934Z,99131.42
2019-03-05T21:55:11.873Z,99131.14
2019-03-05T21:57:39.726Z,99136.98
2019-03-05T22:00:12.772Z,99138.08
2019-03-05T22:02:40.762Z,99141.14
2019-03-05T22:05:08.697Z,99142.27
2019-03-05T22:07:36.490Z,99138.49
2019-03-05T22:10:05.722Z,99137.89
2019-03-05T22:12:33.518Z,99132.72
2019-03-05T22:15:01.345Z,99132.10
2019-03-05T22:17:29.298Z,99129.91
2019-03-05T22:19:57.107Z,99129.94
2019-03-05T22:22:30.003Z,99133.98
2019-03-05T22:24:57.775Z,99134.23
2019-03-05T22:27:26.849Z,99136.82
2019-03-05T22:30:09.218Z,99136.87
2019-03-05T22:32:36.970Z,99138.89
2019-03-05T22:35:05.636Z,99144.48
2019-03-05T22:37:33.386Z,99147.46
2019-03-05T22:40:01.163Z,99143.42
2019-03-05T22:42:28.977Z,99148.88
2019-03-05T22:44:56.829Z,99151.08
2019-03-05T22:47:25.363Z,99158.33
2019-03-05T22:49:53.699Z,99163.64
2019-03-05T22:52:22.159Z,99157.05
2019-03-05T22:54:50.542Z,99152.75
2019-03-05T22:57:19.041Z,99153.64
2019-03-05T22:59:47.381Z,99157.78
2019-03-05T23:02:15.899Z,99161.17
2019-03-05T23:04:45.356Z,99163.27
2019-03-05T23:07:14.339Z,99160.42
2019-03-05T23:09:42.682Z,99161.65
2019-03-05T23:12:11.010Z,99166.38
2019-03-05T23:14:39.441Z,99160.03
2019-03-05T23:17:08.583Z,99155.48
2019-03-05T23:19:37.914Z,99163.30
2019-03-05T23:22:06.298Z,99168.41
2019-03-05T23:24:34.857Z,99167.06
2019-03-05T23:27:03.929Z,99169.61
2019-03-05T23:29:52.221Z,99172.00
2019-03-05T23:32:20.769Z,99169.66
2019-03-05T23:34:49.863Z,99169.73
2019-03-05T23:37:18.208Z,99167.33
2019-03-05T23:39:46.537Z,99172.22
2019-03-05T23:42:15.136Z,99175.64
2019-03-05T23:44:43.545Z,99174.51
2019-03-05T23:47:11.970Z,99184.63
2019-03-05T23:49:40.208Z,99179.48
2019-03-05T23:52:08.665Z,99173.47
2019-03-05T23:54:37.364Z,99176.38
2019-03-05T23:57:05.656Z,99182.47
2019-03-05T23:59:33.927Z,99180.88
